Currently 79°F in Lake Elsinore, California, USA
79°F
94°F / 62°F
calm
0.00"
Thursday, August 17, 2017 8:12 PM PDT

Lake Elsinore, California Weather Summary
Last 36 Hours

Temperature Winds Hourly Humidity Dewpoint
Time Report Norm Report Norm Max Gusts Precip. Rpt. Norm Rpt. Norm Pressure
1Thu 08:12 PM  78.9°F  80°F  calm  2 mph  4 mph  0.00"  44%  53%  54°F  61°F  30.02"
Thu 08:00 PM  79.4°F  81°F  1 mph W  2 mph  8 mph  0.00"  43%  51%  54°F  61°F  30.00"
Thu 07:00 PM  82.4°F  88°F  calm  2 mph  none  0.00"  38%  40%  53°F  59°F  29.99"
Thu 06:00 PM  85.5°F  92°F  calm  3 mph  15 mph  0.00"  35%  33%  53°F  58°F  29.97"
Thu 05:00 PM  89.8°F  96°F  calm  4 mph  18 mph  0.00"  29%  29%  52°F  58°F  29.96"
Thu 04:00 PM  91.0°F  98°F  2 mph S  4 mph  19 mph  0.00"  27%  27%  51°F  57°F  29.96"
2Thu 03:01 PM  93.8°F  98°F  7 mph SW  3 mph  13 mph  ----  22%  27%  48°F  57°F  29.97"
Thu 03:00 PM  93.7°F  98°F  10 mph S  3 mph  12 mph  0.00"  22%  27%  48°F  57°F  29.97"
Thu 02:00 PM  92.1°F  97°F  calm  2 mph  6 mph  0.00"  20%  28%  43°F  57°F  29.99"
Thu 01:00 PM  88.7°F  94°F  2 mph SE  2 mph  7 mph  0.00"  23%  30%  45°F  58°F  30.00"
Thu 12:00 PM  85.8°F  91°F  1 mph NE  2 mph  7 mph  0.00"  29%  36%  48°F  59°F  30.03"
Thu 11:00 AM  80.6°F  87°F  3 mph SE  2 mph  8 mph  0.00"  36%  43%  50°F  61°F  30.05"
Thu 10:00 AM  78.1°F  82°F  3 mph SE  1 mph  5 mph  0.00"  45%  52%  55°F  62°F  30.05"
Thu 09:00 AM  73.9°F  76°F  1 mph SW  1 mph  4 mph  0.00"  54%  65%  55°F  63°F  30.05"
Thu 08:00 AM  68.8°F  70°F  2 mph E  calm  5 mph  0.00"  64%  78%  56°F  63°F  30.05"
Thu 07:00 AM  62.6°F  64°F  calm  calm  2 mph  0.00"  74%  83%  54°F  59°F  30.04"
3Thu 06:32 AM  61.9°F  64°F  calm  calm  none  ----  72%  82%  53°F  58°F  30.03"
Thu 06:00 AM  62.1°F  64°F  calm  calm  2 mph  0.00"  71%  82%  52°F  58°F  30.02"
Thu 05:00 AM  62.9°F  65°F  calm  calm  1 mph  0.00"  67%  81%  51°F  59°F  30.01"
Thu 04:00 AM  64.0°F  66°F  calm  calm  2 mph  0.00"  66%  79%  52°F  59°F  30.01"
Thu 03:00 AM  65.0°F  67°F  calm  calm  3 mph  0.00"  65%  78%  52°F  59°F  30.01"
Thu 02:00 AM  65.9°F  68°F  calm  calm  3 mph  0.00"  65%  77%  54°F  60°F  30.02"
Thu 01:00 AM  67.1°F  69°F  calm  calm  2 mph  0.00"  65%  75%  55°F  61°F  30.01"
Thu 12:00 AM  68.4°F  71°F  calm  calm  5 mph  0.00"  63%  73%  55°F  61°F  30.02"
Wed 11:00 PM  69.9°F  72°F  1 mph E  calm  6 mph  0.00"  58%  71%  54°F  62°F  30.01"
Wed 10:00 PM  72.0°F  74°F  3 mph SE  1 mph  5 mph  0.00"  54%  67%  54°F  62°F  30.01"
Wed 09:00 PM  74.0°F  77°F  calm  2 mph  7 mph  0.00"  53%  61%  55°F  62°F  29.99"
Wed 08:00 PM  76.2°F  81°F  2 mph W  2 mph  11 mph  0.00"  47%  52%  54°F  61°F  29.97"
Wed 07:00 PM  79.7°F  88°F  7 mph SW  2 mph  14 mph  0.00"  42%  40%  54°F  60°F  29.94"
Wed 06:00 PM  83.2°F  92°F  5 mph S  3 mph  15 mph  0.00"  37%  34%  53°F  59°F  29.94"
Wed 05:00 PM  87.7°F  96°F  4 mph S  4 mph  16 mph  0.00"  29%  30%  51°F  58°F  29.93"
Wed 04:00 PM  89.2°F  97°F  8 mph SW  4 mph  15 mph  0.00"  26%  28%  49°F  58°F  29.93"
Wed 03:00 PM  87.2°F  98°F  calm  3 mph  6 mph  0.00"  24%  27%  44°F  57°F  29.94"
Wed 02:00 PM  85.9°F  97°F  3 mph SE  2 mph  8 mph  0.00"  26%  28%  46°F  57°F  29.97"
Wed 01:00 PM  84.2°F  94°F  1 mph SE  2 mph  7 mph  0.00"  28%  31%  47°F  58°F  29.98"
Wed 12:00 PM  79.4°F  91°F  3 mph E  2 mph  8 mph  0.00"  36%  36%  49°F  59°F  30.00"
Wed 11:00 AM  75.4°F  86°F  3 mph E  2 mph  9 mph  0.00"  44%  43%  51°F  61°F  30.01"
Wed 10:00 AM  72.5°F  82°F  2 mph SE  1 mph  7 mph  0.00"  48%  53%  51°F  62°F  30.02"
Wed 09:00 AM  68.5°F  76°F  3 mph E  1 mph  7 mph  0.00"  54%  65%  51°F  63°F  30.02"

  1. Current weather data. No green row appears if the current weather data is also the high or low for the current day.
  2. High temperature for the current day.
  3. Low temperature for the current day.

The Lake Elsinore, California weather pages are a service of WeatherCurrents. Lake Elsinore is located south of Corona and north of the Temecula Valley, in southwestern Riverside County, California.
Copyright ©Thu Aug 17 20:13:52 PDT 2017  WeatherCurrents. All rights reserved. - Submit questions and comments - Privacy Policy

This page automatically refreshes every 10 minutes.